KMLS/MLS METAR and TAF weather

Enter ICAO airport designator
Station Type Date Time Source
KMLS METAR 2020/10/29 16:53 UTC NOAA

KMLS 291653Z AUTO 17004KT 10SM CLR 05/02 A2995 RMK AO2 SLP157 T00500017


Station Type Date Time Source
KMLS Decoded METAR 2020/10/29 16:53 UTC NOAA

MILES CITY WILEY FIELD, MT, United States (KMLS) 46-26N 105-53W 801M
Oct 29, 2020 - 12:53 PM EDT / 2020.10.29 1653 UTC
Wind: from the S (170 degrees) at 5 MPH (4 KT):0
Visibility: 10 mile(s):0
Sky conditions: clear
Temperature: 41.0 F (5.0 C)
Dew Point: 35.1 F (1.7 C)
Relative Humidity: 79%
Pressure (altimeter): 29.95 in. Hg (1014 hPa)
ob: KMLS 291653Z AUTO 17004KT 10SM CLR 05/02 A2995 RMK AO2 SLP157 T00500017
cycle: 17

Station Type Date Time Source
KMLS TAF 2020/10/29 12:24 UTC NOAA

TAF KMLS 291122Z 2912/3012 15007KT P6SM FEW030 BKN060
FM291500 24010KT P6SM SCT070
FM292100 29011KT P6SM SCT070
FM300500 VRB06KT P6SM SCT070

Example: see airport list